sensor_id;sensor_type;location;lat;lon;timestamp;P1;durP1;ratioP1;P2;durP2;ratioP2
79249;SDS011;68679;51.030;7.584;2023-11-21T00:00:54;6.53;;;3.25;;
79249;SDS011;68679;51.030;7.584;2023-11-21T00:03:19;5.07;;;3.00;;
79249;SDS011;68679;51.030;7.584;2023-11-21T00:05:44;7.73;;;2.87;;
79249;SDS011;68679;51.030;7.584;2023-11-21T00:08:10;8.27;;;3.03;;
79249;SDS011;68679;51.030;7.584;2023-11-21T00:10:35;10.38;;;3.15;;
79249;SDS011;68679;51.030;7.584;2023-11-21T00:13:03;11.35;;;3.10;;
79249;SDS011;68679;51.030;7.584;2023-11-21T00:15:28;7.30;;;3.33;;
79249;SDS011;68679;51.030;7.584;2023-11-21T00:17:53;7.60;;;3.17;;
79249;SDS011;68679;51.030;7.584;2023-11-21T00:20:19;5.93;;;2.67;;
79249;SDS011;68679;51.030;7.584;2023-11-21T00:22:44;7.22;;;3.75;;
79249;SDS011;68679;51.030;7.584;2023-11-21T00:25:10;7.70;;;3.00;;
79249;SDS011;68679;51.030;7.584;2023-11-21T00:27:35;6.28;;;3.22;;
79249;SDS011;68679;51.030;7.584;2023-11-21T00:30:01;7.78;;;3.20;;
79249;SDS011;68679;51.030;7.584;2023-11-21T00:32:29;10.18;;;3.05;;
79249;SDS011;68679;51.030;7.584;2023-11-21T00:34:54;10.63;;;3.60;;
79249;SDS011;68679;51.030;7.584;2023-11-21T00:37:20;7.50;;;4.10;;
79249;SDS011;68679;51.030;7.584;2023-11-21T00:39:45;11.77;;;3.40;;
79249;SDS011;68679;51.030;7.584;2023-11-21T00:42:10;10.30;;;3.20;;
79249;SDS011;68679;51.030;7.584;2023-11-21T00:44:37;6.78;;;3.00;;
79249;SDS011;68679;51.030;7.584;2023-11-21T00:47:03;12.93;;;3.67;;
79249;SDS011;68679;51.030;7.584;2023-11-21T00:49:28;5.57;;;2.57;;
79249;SDS011;68679;51.030;7.584;2023-11-21T00:51:54;5.23;;;2.60;;
79249;SDS011;68679;51.030;7.584;2023-11-21T00:54:19;6.80;;;2.57;;
79249;SDS011;68679;51.030;7.584;2023-11-21T00:56:44;6.57;;;3.07;;
79249;SDS011;68679;51.030;7.584;2023-11-21T00:59:12;7.68;;;3.50;;
79249;SDS011;68679;51.030;7.584;2023-11-21T01:01:37;8.67;;;2.83;;
79249;SDS011;68679;51.030;7.584;2023-11-21T01:04:02;13.03;;;3.43;;
79249;SDS011;68679;51.030;7.584;2023-11-21T01:06:28;10.43;;;3.80;;
79249;SDS011;68679;51.030;7.584;2023-11-21T01:08:53;9.53;;;3.77;;
79249;SDS011;68679;51.030;7.584;2023-11-21T01:11:18;5.67;;;2.83;;
79249;SDS011;68679;51.030;7.584;2023-11-21T01:13:44;6.15;;;3.47;;
79249;SDS011;68679;51.030;7.584;2023-11-21T01:16:10;5.03;;;2.72;;
79249;SDS011;68679;51.030;7.584;2023-11-21T01:18:36;7.70;;;3.88;;
79249;SDS011;68679;51.030;7.584;2023-11-21T01:21:01;5.30;;;2.80;;
79249;SDS011;68679;51.030;7.584;2023-11-21T01:23:27;6.07;;;2.70;;
79249;SDS011;68679;51.030;7.584;2023-11-21T01:25:52;8.03;;;3.60;;
79249;SDS011;68679;51.030;7.584;2023-11-21T01:28:18;9.93;;;3.15;;
79249;SDS011;68679;51.030;7.584;2023-11-21T01:30:43;11.13;;;3.15;;
79249;SDS011;68679;51.030;7.584;2023-11-21T01:33:09;11.15;;;3.08;;
79249;SDS011;68679;51.030;7.584;2023-11-21T01:35:34;10.93;;;3.15;;
79249;SDS011;68679;51.030;7.584;2023-11-21T01:38:00;8.13;;;3.10;;
79249;SDS011;68679;51.030;7.584;2023-11-21T01:40:25;8.47;;;3.33;;
79249;SDS011;68679;51.030;7.584;2023-11-21T01:42:50;5.80;;;2.70;;
79249;SDS011;68679;51.030;7.584;2023-11-21T01:45:18;7.93;;;3.08;;
79249;SDS011;68679;51.030;7.584;2023-11-21T01:47:43;9.23;;;2.97;;
79249;SDS011;68679;51.030;7.584;2023-11-21T01:50:10;8.55;;;3.30;;
79249;SDS011;68679;51.030;7.584;2023-11-21T01:52:39;5.15;;;2.95;;
79249;SDS011;68679;51.030;7.584;2023-11-21T01:55:06;5.22;;;2.70;;
79249;SDS011;68679;51.030;7.584;2023-11-21T01:57:33;7.88;;;3.22;;
79249;SDS011;68679;51.030;7.584;2023-11-21T01:59:59;7.00;;;2.92;;
79249;SDS011;68679;51.030;7.584;2023-11-21T02:02:36;5.55;;;2.58;;
79249;SDS011;68679;51.030;7.584;2023-11-21T02:05:01;5.20;;;2.50;;
79249;SDS011;68679;51.030;7.584;2023-11-21T02:07:26;11.82;;;3.95;;
79249;SDS011;68679;51.030;7.584;2023-11-21T02:09:52;7.03;;;3.10;;
79249;SDS011;68679;51.030;7.584;2023-11-21T02:12:17;6.43;;;2.77;;
79249;SDS011;68679;51.030;7.584;2023-11-21T02:14:42;11.17;;;3.50;;
79249;SDS011;68679;51.030;7.584;2023-11-21T02:17:08;7.57;;;2.65;;
79249;SDS011;68679;51.030;7.584;2023-11-21T02:19:33;8.83;;;3.07;;
79249;SDS011;68679;51.030;7.584;2023-11-21T02:21:59;11.60;;;4.05;;
79249;SDS011;68679;51.030;7.584;2023-11-21T02:24:28;11.40;;;3.55;;
79249;SDS011;68679;51.030;7.584;2023-11-21T02:26:54;7.60;;;2.95;;
79249;SDS011;68679;51.030;7.584;2023-11-21T02:29:20;14.93;;;3.50;;
79249;SDS011;68679;51.030;7.584;2023-11-21T02:31:53;8.65;;;3.50;;
79249;SDS011;68679;51.030;7.584;2023-11-21T02:34:19;13.85;;;3.50;;
79249;SDS011;68679;51.030;7.584;2023-11-21T02:36:46;10.13;;;4.07;;
79249;SDS011;68679;51.030;7.584;2023-11-21T02:39:14;11.68;;;4.63;;
79249;SDS011;68679;51.030;7.584;2023-11-21T02:41:40;9.45;;;4.32;;
79249;SDS011;68679;51.030;7.584;2023-11-21T02:44:05;8.43;;;3.42;;
79249;SDS011;68679;51.030;7.584;2023-11-21T02:46:34;9.77;;;4.00;;
79249;SDS011;68679;51.030;7.584;2023-11-21T02:49:01;8.88;;;3.55;;
79249;SDS011;68679;51.030;7.584;2023-11-21T02:51:27;13.63;;;3.33;;
79249;SDS011;68679;51.030;7.584;2023-11-21T02:53:52;9.70;;;4.03;;
79249;SDS011;68679;51.030;7.584;2023-11-21T02:56:17;11.00;;;3.73;;
79249;SDS011;68679;51.030;7.584;2023-11-21T02:58:44;8.57;;;3.10;;
79249;SDS011;68679;51.030;7.584;2023-11-21T03:01:10;11.73;;;3.70;;
79249;SDS011;68679;51.030;7.584;2023-11-21T03:03:36;8.65;;;4.65;;
79249;SDS011;68679;51.030;7.584;2023-11-21T03:06:04;8.60;;;4.00;;
79249;SDS011;68679;51.030;7.584;2023-11-21T03:08:29;11.90;;;3.58;;
79249;SDS011;68679;51.030;7.584;2023-11-21T03:10:54;9.53;;;4.17;;
79249;SDS011;68679;51.030;7.584;2023-11-21T03:13:20;7.65;;;3.42;;
79249;SDS011;68679;51.030;7.584;2023-11-21T03:15:46;10.60;;;3.20;;
79249;SDS011;68679;51.030;7.584;2023-11-21T03:18:12;5.82;;;3.35;;
79249;SDS011;68679;51.030;7.584;2023-11-21T03:20:38;13.48;;;4.45;;
79249;SDS011;68679;51.030;7.584;2023-11-21T03:23:03;9.87;;;4.33;;
79249;SDS011;68679;51.030;7.584;2023-11-21T03:25:30;10.88;;;4.28;;
79249;SDS011;68679;51.030;7.584;2023-11-21T03:27:55;7.40;;;3.30;;
79249;SDS011;68679;51.030;7.584;2023-11-21T03:30:21;9.18;;;3.95;;
79249;SDS011;68679;51.030;7.584;2023-11-21T03:32:46;6.75;;;3.28;;
79249;SDS011;68679;51.030;7.584;2023-11-21T03:35:12;6.57;;;3.20;;
79249;SDS011;68679;51.030;7.584;2023-11-21T03:37:37;7.13;;;3.30;;
79249;SDS011;68679;51.030;7.584;2023-11-21T03:40:06;6.75;;;3.40;;
79249;SDS011;68679;51.030;7.584;2023-11-21T03:42:33;13.10;;;3.38;;
79249;SDS011;68679;51.030;7.584;2023-11-21T03:44:58;6.80;;;3.60;;
79249;SDS011;68679;51.030;7.584;2023-11-21T03:47:23;7.77;;;4.40;;
79249;SDS011;68679;51.030;7.584;2023-11-21T03:49:49;13.60;;;4.47;;
79249;SDS011;68679;51.030;7.584;2023-11-21T03:52:14;8.15;;;4.03;;
79249;SDS011;68679;51.030;7.584;2023-11-21T03:54:40;8.43;;;3.87;;
79249;SDS011;68679;51.030;7.584;2023-11-21T03:57:05;7.80;;;3.60;;
79249;SDS011;68679;51.030;7.584;2023-11-21T03:59:30;10.00;;;4.80;;
79249;SDS011;68679;51.030;7.584;2023-11-21T04:01:56;11.00;;;3.83;;
79249;SDS011;68679;51.030;7.584;2023-11-21T04:04:22;14.23;;;4.13;;
79249;SDS011;68679;51.030;7.584;2023-11-21T04:06:47;9.30;;;3.63;;
79249;SDS011;68679;51.030;7.584;2023-11-21T04:09:12;10.47;;;3.87;;
79249;SDS011;68679;51.030;7.584;2023-11-21T04:11:38;8.43;;;4.37;;
79249;SDS011;68679;51.030;7.584;2023-11-21T04:14:03;9.77;;;3.50;;
79249;SDS011;68679;51.030;7.584;2023-11-21T04:16:28;8.83;;;3.90;;
79249;SDS011;68679;51.030;7.584;2023-11-21T04:18:53;9.00;;;3.33;;
79249;SDS011;68679;51.030;7.584;2023-11-21T04:21:19;9.90;;;4.13;;
79249;SDS011;68679;51.030;7.584;2023-11-21T04:23:44;7.83;;;4.20;;
79249;SDS011;68679;51.030;7.584;2023-11-21T04:26:09;13.33;;;5.00;;
79249;SDS011;68679;51.030;7.584;2023-11-21T04:28:34;8.33;;;4.17;;
79249;SDS011;68679;51.030;7.584;2023-11-21T04:31:00;11.83;;;5.30;;
79249;SDS011;68679;51.030;7.584;2023-11-21T04:33:25;8.33;;;3.63;;
79249;SDS011;68679;51.030;7.584;2023-11-21T04:35:50;9.50;;;3.90;;
79249;SDS011;68679;51.030;7.584;2023-11-21T04:38:16;9.65;;;4.65;;
79249;SDS011;68679;51.030;7.584;2023-11-21T04:40:41;6.00;;;3.42;;
79249;SDS011;68679;51.030;7.584;2023-11-21T04:43:06;9.93;;;4.03;;
79249;SDS011;68679;51.030;7.584;2023-11-21T04:45:32;6.18;;;3.72;;
79249;SDS011;68679;51.030;7.584;2023-11-21T04:47:57;8.97;;;4.40;;
79249;SDS011;68679;51.030;7.584;2023-11-21T04:50:22;10.63;;;4.37;;
79249;SDS011;68679;51.030;7.584;2023-11-21T04:52:48;7.97;;;3.60;;
79249;SDS011;68679;51.030;7.584;2023-11-21T04:55:13;9.13;;;3.53;;
79249;SDS011;68679;51.030;7.584;2023-11-21T04:57:40;9.90;;;3.60;;
79249;SDS011;68679;51.030;7.584;2023-11-21T05:00:06;8.90;;;3.80;;
79249;SDS011;68679;51.030;7.584;2023-11-21T05:02:32;11.65;;;4.82;;
79249;SDS011;68679;51.030;7.584;2023-11-21T05:04:59;14.38;;;4.85;;
79249;SDS011;68679;51.030;7.584;2023-11-21T05:07:24;9.23;;;3.88;;
79249;SDS011;68679;51.030;7.584;2023-11-21T05:09:54;11.82;;;4.82;;
79249;SDS011;68679;51.030;7.584;2023-11-21T05:12:21;9.27;;;4.18;;
79249;SDS011;68679;51.030;7.584;2023-11-21T05:14:47;10.27;;;4.32;;
79249;SDS011;68679;51.030;7.584;2023-11-21T05:17:13;13.10;;;4.53;;
79249;SDS011;68679;51.030;7.584;2023-11-21T05:19:39;8.82;;;4.05;;
79249;SDS011;68679;51.030;7.584;2023-11-21T05:22:05;9.73;;;4.32;;
79249;SDS011;68679;51.030;7.584;2023-11-21T05:24:30;12.15;;;4.97;;
79249;SDS011;68679;51.030;7.584;2023-11-21T05:26:56;12.68;;;4.85;;
79249;SDS011;68679;51.030;7.584;2023-11-21T05:29:22;8.83;;;4.07;;
79249;SDS011;68679;51.030;7.584;2023-11-21T05:31:47;11.18;;;3.92;;
79249;SDS011;68679;51.030;7.584;2023-11-21T05:34:12;7.13;;;3.50;;
79249;SDS011;68679;51.030;7.584;2023-11-21T05:36:37;10.70;;;4.03;;
79249;SDS011;68679;51.030;7.584;2023-11-21T05:39:03;10.53;;;4.23;;
79249;SDS011;68679;51.030;7.584;2023-11-21T05:41:29;9.65;;;5.05;;
79249;SDS011;68679;51.030;7.584;2023-11-21T05:43:54;11.52;;;4.70;;
79249;SDS011;68679;51.030;7.584;2023-11-21T05:46:20;10.37;;;3.90;;
79249;SDS011;68679;51.030;7.584;2023-11-21T05:48:45;7.47;;;3.83;;
79249;SDS011;68679;51.030;7.584;2023-11-21T05:51:11;13.90;;;4.43;;
79249;SDS011;68679;51.030;7.584;2023-11-21T05:53:37;11.70;;;4.53;;
79249;SDS011;68679;51.030;7.584;2023-11-21T05:56:03;10.60;;;5.22;;
79249;SDS011;68679;51.030;7.584;2023-11-21T05:58:29;13.85;;;4.65;;
79249;SDS011;68679;51.030;7.584;2023-11-21T06:00:54;12.65;;;4.50;;
79249;SDS011;68679;51.030;7.584;2023-11-21T06:03:19;12.83;;;5.30;;
79249;SDS011;68679;51.030;7.584;2023-11-21T06:05:44;11.77;;;5.10;;
79249;SDS011;68679;51.030;7.584;2023-11-21T06:08:10;15.10;;;5.13;;
79249;SDS011;68679;51.030;7.584;2023-11-21T06:10:35;15.88;;;5.47;;
79249;SDS011;68679;51.030;7.584;2023-11-21T06:13:01;11.32;;;5.72;;
79249;SDS011;68679;51.030;7.584;2023-11-21T06:15:26;12.32;;;5.20;;
79249;SDS011;68679;51.030;7.584;2023-11-21T06:17:51;18.57;;;5.47;;
79249;SDS011;68679;51.030;7.584;2023-11-21T06:20:17;12.80;;;4.65;;
79249;SDS011;68679;51.030;7.584;2023-11-21T06:22:44;10.80;;;4.50;;
79249;SDS011;68679;51.030;7.584;2023-11-21T06:25:11;12.75;;;4.40;;
79249;SDS011;68679;51.030;7.584;2023-11-21T06:27:41;7.78;;;3.75;;
79249;SDS011;68679;51.030;7.584;2023-11-21T06:30:07;15.90;;;4.85;;
79249;SDS011;68679;51.030;7.584;2023-11-21T06:32:34;9.27;;;4.10;;
79249;SDS011;68679;51.030;7.584;2023-11-21T06:35:04;13.43;;;4.68;;
79249;SDS011;68679;51.030;7.584;2023-11-21T06:37:31;16.27;;;5.35;;
79249;SDS011;68679;51.030;7.584;2023-11-21T06:39:57;15.10;;;4.97;;
79249;SDS011;68679;51.030;7.584;2023-11-21T06:42:23;10.25;;;5.00;;
79249;SDS011;68679;51.030;7.584;2023-11-21T06:44:49;13.95;;;5.85;;
79249;SDS011;68679;51.030;7.584;2023-11-21T06:47:16;13.38;;;4.78;;
79249;SDS011;68679;51.030;7.584;2023-11-21T06:49:42;10.43;;;4.55;;
79249;SDS011;68679;51.030;7.584;2023-11-21T06:52:08;11.45;;;5.00;;
79249;SDS011;68679;51.030;7.584;2023-11-21T06:54:34;10.55;;;4.25;;
79249;SDS011;68679;51.030;7.584;2023-11-21T06:56:59;15.57;;;5.68;;
79249;SDS011;68679;51.030;7.584;2023-11-21T06:59:25;18.13;;;5.35;;
79249;SDS011;68679;51.030;7.584;2023-11-21T07:01:50;13.60;;;5.57;;
79249;SDS011;68679;51.030;7.584;2023-11-21T07:04:16;14.57;;;6.68;;
79249;SDS011;68679;51.030;7.584;2023-11-21T07:06:41;11.43;;;4.78;;
79249;SDS011;68679;51.030;7.584;2023-11-21T07:09:08;11.63;;;4.53;;
79249;SDS011;68679;51.030;7.584;2023-11-21T07:11:34;12.95;;;5.35;;
79249;SDS011;68679;51.030;7.584;2023-11-21T07:14:00;16.73;;;5.35;;
79249;SDS011;68679;51.030;7.584;2023-11-21T07:16:32;14.38;;;5.28;;
79249;SDS011;68679;51.030;7.584;2023-11-21T07:18:59;13.15;;;5.30;;
79249;SDS011;68679;51.030;7.584;2023-11-21T07:21:25;13.03;;;4.90;;
79249;SDS011;68679;51.030;7.584;2023-11-21T07:23:50;14.43;;;4.73;;
79249;SDS011;68679;51.030;7.584;2023-11-21T07:26:15;13.57;;;5.33;;
79249;SDS011;68679;51.030;7.584;2023-11-21T07:28:41;12.77;;;5.37;;
79249;SDS011;68679;51.030;7.584;2023-11-21T07:31:06;15.70;;;6.23;;
79249;SDS011;68679;51.030;7.584;2023-11-21T07:33:31;14.10;;;5.53;;
79249;SDS011;68679;51.030;7.584;2023-11-21T07:35:56;16.00;;;5.43;;
79249;SDS011;68679;51.030;7.584;2023-11-21T07:38:22;12.87;;;5.80;;
79249;SDS011;68679;51.030;7.584;2023-11-21T07:40:48;13.10;;;5.65;;
79249;SDS011;68679;51.030;7.584;2023-11-21T07:43:13;16.00;;;6.25;;
79249;SDS011;68679;51.030;7.584;2023-11-21T07:45:38;13.20;;;6.10;;
79249;SDS011;68679;51.030;7.584;2023-11-21T07:48:04;14.40;;;5.30;;
79249;SDS011;68679;51.030;7.584;2023-11-21T07:50:30;14.85;;;5.65;;
79249;SDS011;68679;51.030;7.584;2023-11-21T07:52:55;13.27;;;5.00;;
79249;SDS011;68679;51.030;7.584;2023-11-21T07:55:21;14.38;;;5.53;;
79249;SDS011;68679;51.030;7.584;2023-11-21T07:57:46;17.47;;;4.83;;
79249;SDS011;68679;51.030;7.584;2023-11-21T08:00:12;10.10;;;4.40;;
79249;SDS011;68679;51.030;7.584;2023-11-21T08:02:40;15.88;;;6.15;;
79249;SDS011;68679;51.030;7.584;2023-11-21T08:05:10;17.73;;;5.18;;
79249;SDS011;68679;51.030;7.584;2023-11-21T08:07:36;13.02;;;5.00;;
79249;SDS011;68679;51.030;7.584;2023-11-21T08:10:01;15.03;;;6.20;;
79249;SDS011;68679;51.030;7.584;2023-11-21T08:12:28;15.57;;;5.90;;
79249;SDS011;68679;51.030;7.584;2023-11-21T08:14:53;14.87;;;4.93;;
79249;SDS011;68679;51.030;7.584;2023-11-21T08:17:18;12.57;;;6.67;;
79249;SDS011;68679;51.030;7.584;2023-11-21T08:19:45;16.05;;;5.97;;
79249;SDS011;68679;51.030;7.584;2023-11-21T08:22:14;12.63;;;5.20;;
79249;SDS011;68679;51.030;7.584;2023-11-21T08:24:41;13.98;;;5.60;;
79249;SDS011;68679;51.030;7.584;2023-11-21T08:27:06;15.63;;;5.03;;
79249;SDS011;68679;51.030;7.584;2023-11-21T08:29:32;16.60;;;6.05;;
79249;SDS011;68679;51.030;7.584;2023-11-21T08:31:57;12.67;;;5.50;;
79249;SDS011;68679;51.030;7.584;2023-11-21T08:34:22;13.33;;;5.97;;
79249;SDS011;68679;51.030;7.584;2023-11-21T08:36:48;18.77;;;7.03;;
79249;SDS011;68679;51.030;7.584;2023-11-21T08:39:16;16.42;;;7.10;;
79249;SDS011;68679;51.030;7.584;2023-11-21T08:41:43;21.42;;;6.65;;
79249;SDS011;68679;51.030;7.584;2023-11-21T08:44:09;24.37;;;8.57;;
79249;SDS011;68679;51.030;7.584;2023-11-21T08:46:34;17.07;;;7.73;;
79249;SDS011;68679;51.030;7.584;2023-11-21T08:49:01;16.17;;;7.28;;
79249;SDS011;68679;51.030;7.584;2023-11-21T08:51:27;16.88;;;6.70;;
79249;SDS011;68679;51.030;7.584;2023-11-21T08:53:52;19.97;;;7.33;;
79249;SDS011;68679;51.030;7.584;2023-11-21T08:56:18;22.73;;;7.03;;
79249;SDS011;68679;51.030;7.584;2023-11-21T08:58:44;18.50;;;6.70;;
79249;SDS011;68679;51.030;7.584;2023-11-21T09:01:11;16.80;;;6.68;;
79249;SDS011;68679;51.030;7.584;2023-11-21T09:03:37;24.33;;;6.97;;
79249;SDS011;68679;51.030;7.584;2023-11-21T09:06:02;15.93;;;6.47;;
79249;SDS011;68679;51.030;7.584;2023-11-21T09:08:28;21.20;;;7.15;;
79249;SDS011;68679;51.030;7.584;2023-11-21T09:10:54;26.92;;;7.05;;
79249;SDS011;68679;51.030;7.584;2023-11-21T09:13:19;22.27;;;8.60;;
79249;SDS011;68679;51.030;7.584;2023-11-21T09:15:45;21.90;;;6.30;;
79249;SDS011;68679;51.030;7.584;2023-11-21T09:18:13;18.55;;;6.75;;
79249;SDS011;68679;51.030;7.584;2023-11-21T09:20:38;16.00;;;6.15;;
79249;SDS011;68679;51.030;7.584;2023-11-21T09:23:04;19.75;;;6.20;;
79249;SDS011;68679;51.030;7.584;2023-11-21T09:25:29;16.80;;;5.93;;
79249;SDS011;68679;51.030;7.584;2023-11-21T09:27:54;22.30;;;6.70;;
79249;SDS011;68679;51.030;7.584;2023-11-21T09:30:21;17.20;;;6.57;;
79249;SDS011;68679;51.030;7.584;2023-11-21T09:32:46;20.77;;;6.80;;
79249;SDS011;68679;51.030;7.584;2023-11-21T09:35:12;22.17;;;6.85;;
79249;SDS011;68679;51.030;7.584;2023-11-21T09:37:38;21.42;;;7.63;;
79249;SDS011;68679;51.030;7.584;2023-11-21T09:40:04;24.07;;;7.87;;
79249;SDS011;68679;51.030;7.584;2023-11-21T09:42:40;18.20;;;7.25;;
79249;SDS011;68679;51.030;7.584;2023-11-21T09:45:39;24.30;;;7.50;;
79249;SDS011;68679;51.030;7.584;2023-11-21T09:48:05;22.98;;;8.27;;
79249;SDS011;68679;51.030;7.584;2023-11-21T09:50:31;14.40;;;5.32;;
79249;SDS011;68679;51.030;7.584;2023-11-21T09:53:03;16.83;;;6.35;;
79249;SDS011;68679;51.030;7.584;2023-11-21T09:55:38;21.95;;;6.72;;
79249;SDS011;68679;51.030;7.584;2023-11-21T09:58:06;18.40;;;6.93;;
79249;SDS011;68679;51.030;7.584;2023-11-21T10:00:36;25.08;;;8.45;;
79249;SDS011;68679;51.030;7.584;2023-11-21T10:03:04;21.95;;;7.00;;
79249;SDS011;68679;51.030;7.584;2023-11-21T10:05:30;18.00;;;7.93;;
79249;SDS011;68679;51.030;7.584;2023-11-21T10:07:59;27.45;;;7.03;;
79249;SDS011;68679;51.030;7.584;2023-11-21T10:10:24;17.25;;;6.30;;
79249;SDS011;68679;51.030;7.584;2023-11-21T10:12:51;17.15;;;6.43;;
79249;SDS011;68679;51.030;7.584;2023-11-21T10:15:23;30.75;;;7.85;;
79249;SDS011;68679;51.030;7.584;2023-11-21T10:17:52;23.85;;;6.80;;
79249;SDS011;68679;51.030;7.584;2023-11-21T10:20:21;17.27;;;6.22;;
79249;SDS011;68679;51.030;7.584;2023-11-21T10:22:49;15.63;;;6.30;;
79249;SDS011;68679;51.030;7.584;2023-11-21T10:25:14;23.53;;;7.13;;
79249;SDS011;68679;51.030;7.584;2023-11-21T10:27:40;27.03;;;8.27;;
79249;SDS011;68679;51.030;7.584;2023-11-21T10:30:09;22.23;;;7.30;;
79249;SDS011;68679;51.030;7.584;2023-11-21T10:32:37;24.30;;;6.43;;
79249;SDS011;68679;51.030;7.584;2023-11-21T10:35:03;20.45;;;5.97;;
79249;SDS011;68679;51.030;7.584;2023-11-21T10:37:37;20.38;;;5.95;;
79249;SDS011;68679;51.030;7.584;2023-11-21T10:40:06;18.60;;;7.35;;
79249;SDS011;68679;51.030;7.584;2023-11-21T10:42:33;14.95;;;5.82;;
79249;SDS011;68679;51.030;7.584;2023-11-21T10:44:58;16.70;;;6.07;;
79249;SDS011;68679;51.030;7.584;2023-11-21T10:47:24;17.00;;;7.60;;
79249;SDS011;68679;51.030;7.584;2023-11-21T10:49:51;20.33;;;6.50;;
79249;SDS011;68679;51.030;7.584;2023-11-21T10:52:21;15.77;;;6.63;;
79249;SDS011;68679;51.030;7.584;2023-11-21T10:54:47;19.40;;;5.72;;
79249;SDS011;68679;51.030;7.584;2023-11-21T10:57:13;17.00;;;5.68;;
79249;SDS011;68679;51.030;7.584;2023-11-21T10:59:43;20.98;;;6.90;;
79249;SDS011;68679;51.030;7.584;2023-11-21T11:02:23;22.20;;;6.93;;
79249;SDS011;68679;51.030;7.584;2023-11-21T11:04:53;23.48;;;8.10;;
79249;SDS011;68679;51.030;7.584;2023-11-21T11:07:25;21.45;;;7.40;;
79249;SDS011;68679;51.030;7.584;2023-11-21T11:09:52;24.65;;;5.90;;
79249;SDS011;68679;51.030;7.584;2023-11-21T11:12:19;28.25;;;7.43;;
79249;SDS011;68679;51.030;7.584;2023-11-21T11:14:44;18.40;;;5.45;;
79249;SDS011;68679;51.030;7.584;2023-11-21T11:17:10;18.87;;;6.43;;
79249;SDS011;68679;51.030;7.584;2023-11-21T11:19:39;26.55;;;7.70;;
79249;SDS011;68679;51.030;7.584;2023-11-21T11:25:27;24.13;;;7.53;;
79249;SDS011;68679;51.030;7.584;2023-11-21T11:28:04;22.38;;;7.70;;
79249;SDS011;68679;51.030;7.584;2023-11-21T11:33:43;16.73;;;5.95;;
79249;SDS011;68679;51.030;7.584;2023-11-21T11:36:29;17.73;;;6.28;;
79249;SDS011;68679;51.030;7.584;2023-11-21T11:38:59;12.95;;;5.35;;
79249;SDS011;68679;51.030;7.584;2023-11-21T11:41:30;19.27;;;6.63;;
79249;SDS011;68679;51.030;7.584;2023-11-21T11:44:00;13.55;;;5.25;;
79249;SDS011;68679;51.030;7.584;2023-11-21T11:46:41;19.45;;;5.78;;
79249;SDS011;68679;51.030;7.584;2023-11-21T11:49:10;15.13;;;6.07;;
79249;SDS011;68679;51.030;7.584;2023-11-21T11:51:36;11.48;;;4.75;;
79249;SDS011;68679;51.030;7.584;2023-11-21T11:54:01;18.10;;;6.63;;
79249;SDS011;68679;51.030;7.584;2023-11-21T11:56:30;11.85;;;4.95;;
79249;SDS011;68679;51.030;7.584;2023-11-21T11:58:59;16.52;;;5.95;;
79249;SDS011;68679;51.030;7.584;2023-11-21T12:01:28;19.58;;;5.38;;
79249;SDS011;68679;51.030;7.584;2023-11-21T12:09:21;15.52;;;4.60;;
79249;SDS011;68679;51.030;7.584;2023-11-21T12:11:48;15.05;;;4.30;;
79249;SDS011;68679;51.030;7.584;2023-11-21T12:14:14;17.08;;;5.32;;
79249;SDS011;68679;51.030;7.584;2023-11-21T12:16:40;12.10;;;4.35;;
79249;SDS011;68679;51.030;7.584;2023-11-21T12:19:07;12.15;;;4.03;;
79249;SDS011;68679;51.030;7.584;2023-11-21T12:21:33;12.25;;;3.75;;
79249;SDS011;68679;51.030;7.584;2023-11-21T12:23:59;13.32;;;4.47;;
79249;SDS011;68679;51.030;7.584;2023-11-21T12:26:25;14.52;;;4.65;;
79249;SDS011;68679;51.030;7.584;2023-11-21T12:28:53;11.17;;;4.87;;
79249;SDS011;68679;51.030;7.584;2023-11-21T12:31:24;21.60;;;5.07;;
79249;SDS011;68679;51.030;7.584;2023-11-21T12:33:50;11.93;;;3.47;;
79249;SDS011;68679;51.030;7.584;2023-11-21T12:36:15;12.07;;;3.60;;
79249;SDS011;68679;51.030;7.584;2023-11-21T12:38:41;14.38;;;4.45;;
79249;SDS011;68679;51.030;7.584;2023-11-21T12:41:07;9.15;;;3.72;;
79249;SDS011;68679;51.030;7.584;2023-11-21T12:43:35;18.02;;;4.82;;
79249;SDS011;68679;51.030;7.584;2023-11-21T12:46:07;12.48;;;4.18;;
79249;SDS011;68679;51.030;7.584;2023-11-21T12:48:38;6.07;;;2.88;;
79249;SDS011;68679;51.030;7.584;2023-11-21T12:51:07;12.68;;;4.38;;
79249;SDS011;68679;51.030;7.584;2023-11-21T12:53:34;14.18;;;4.47;;
79249;SDS011;68679;51.030;7.584;2023-11-21T12:56:01;13.65;;;4.38;;
79249;SDS011;68679;51.030;7.584;2023-11-21T12:58:34;12.38;;;3.75;;
79249;SDS011;68679;51.030;7.584;2023-11-21T13:01:00;11.43;;;4.43;;
79249;SDS011;68679;51.030;7.584;2023-11-21T13:03:28;11.98;;;3.80;;
79249;SDS011;68679;51.030;7.584;2023-11-21T13:05:55;18.05;;;4.80;;
79249;SDS011;68679;51.030;7.584;2023-11-21T13:08:22;10.68;;;4.45;;
79249;SDS011;68679;51.030;7.584;2023-11-21T13:10:49;10.00;;;3.70;;
79249;SDS011;68679;51.030;7.584;2023-11-21T13:15:48;11.57;;;3.25;;
79249;SDS011;68679;51.030;7.584;2023-11-21T13:18:18;9.73;;;3.53;;
79249;SDS011;68679;51.030;7.584;2023-11-21T13:20:43;14.48;;;3.45;;
79249;SDS011;68679;51.030;7.584;2023-11-21T13:23:10;8.00;;;3.28;;
79249;SDS011;68679;51.030;7.584;2023-11-21T13:25:37;9.88;;;3.65;;
79249;SDS011;68679;51.030;7.584;2023-11-21T13:28:06;11.77;;;3.85;;
79249;SDS011;68679;51.030;7.584;2023-11-21T13:30:31;10.10;;;3.45;;
79249;SDS011;68679;51.030;7.584;2023-11-21T13:33:00;13.20;;;3.75;;
79249;SDS011;68679;51.030;7.584;2023-11-21T13:35:29;13.25;;;3.78;;
79249;SDS011;68679;51.030;7.584;2023-11-21T13:38:02;23.70;;;9.40;;
79249;SDS011;68679;51.030;7.584;2023-11-21T13:40:32;12.52;;;5.70;;
79249;SDS011;68679;51.030;7.584;2023-11-21T13:43:05;12.05;;;5.03;;
79249;SDS011;68679;51.030;7.584;2023-11-21T13:45:30;23.23;;;8.43;;
79249;SDS011;68679;51.030;7.584;2023-11-21T13:47:56;23.88;;;5.88;;
79249;SDS011;68679;51.030;7.584;2023-11-21T13:50:24;12.25;;;3.80;;
79249;SDS011;68679;51.030;7.584;2023-11-21T13:52:55;10.13;;;3.53;;
79249;SDS011;68679;51.030;7.584;2023-11-21T13:55:20;7.55;;;2.97;;
79249;SDS011;68679;51.030;7.584;2023-11-21T13:57:50;10.70;;;3.15;;
79249;SDS011;68679;51.030;7.584;2023-11-21T14:00:16;11.45;;;2.90;;
79249;SDS011;68679;51.030;7.584;2023-11-21T14:03:08;10.82;;;3.03;;
79249;SDS011;68679;51.030;7.584;2023-11-21T14:05:41;13.35;;;2.80;;
79249;SDS011;68679;51.030;7.584;2023-11-21T14:08:08;5.55;;;2.60;;
79249;SDS011;68679;51.030;7.584;2023-11-21T14:10:36;8.23;;;3.60;;
79249;SDS011;68679;51.030;7.584;2023-11-21T14:13:08;8.63;;;3.35;;
79249;SDS011;68679;51.030;7.584;2023-11-21T14:15:35;10.27;;;2.90;;
79249;SDS011;68679;51.030;7.584;2023-11-21T14:18:06;14.02;;;3.78;;
79249;SDS011;68679;51.030;7.584;2023-11-21T14:20:35;42.95;;;27.52;;
79249;SDS011;68679;51.030;7.584;2023-11-21T14:23:04;16.42;;;10.85;;
79249;SDS011;68679;51.030;7.584;2023-11-21T14:25:31;8.48;;;3.22;;
79249;SDS011;68679;51.030;7.584;2023-11-21T14:27:58;11.32;;;3.42;;
79249;SDS011;68679;51.030;7.584;2023-11-21T14:30:23;12.60;;;5.72;;
79249;SDS011;68679;51.030;7.584;2023-11-21T14:32:49;11.60;;;3.75;;
79249;SDS011;68679;51.030;7.584;2023-11-21T14:35:16;11.43;;;4.15;;
79249;SDS011;68679;51.030;7.584;2023-11-21T14:37:42;8.55;;;3.65;;
79249;SDS011;68679;51.030;7.584;2023-11-21T14:40:08;9.68;;;4.18;;
79249;SDS011;68679;51.030;7.584;2023-11-21T14:42:34;8.75;;;4.03;;
79249;SDS011;68679;51.030;7.584;2023-11-21T14:45:02;8.02;;;3.80;;
79249;SDS011;68679;51.030;7.584;2023-11-21T14:47:32;15.25;;;5.35;;
79249;SDS011;68679;51.030;7.584;2023-11-21T14:49:58;8.80;;;3.53;;